createdAt,value
2017-03-05T00:07:16.324Z,99.99
2017-03-05T00:17:16.319Z,99.99
2017-03-05T00:27:16.309Z,99.99
2017-03-05T00:37:16.352Z,99.99
2017-03-05T00:47:16.317Z,99.99
2017-03-05T00:57:16.303Z,99.99
2017-03-05T01:07:16.315Z,99.99
2017-03-05T01:17:16.306Z,99.99
2017-03-05T01:27:16.315Z,99.99
2017-03-05T01:37:16.438Z,99.99
2017-03-05T01:47:16.296Z,99.99
2017-03-05T01:57:16.328Z,99.99
2017-03-05T02:07:16.383Z,99.99
2017-03-05T02:17:16.335Z,99.99
2017-03-05T02:27:16.491Z,99.99
2017-03-05T02:37:16.289Z,99.99
2017-03-05T02:47:16.295Z,99.99
2017-03-05T02:57:16.384Z,99.99
2017-03-05T03:07:16.275Z,99.99
2017-03-05T03:17:16.329Z,99.99
2017-03-05T03:27:16.300Z,99.99
2017-03-05T03:37:16.276Z,99.99
2017-03-05T03:47:16.290Z,99.99
2017-03-05T03:57:16.269Z,99.99
2017-03-05T04:07:16.378Z,99.99
2017-03-05T04:17:16.289Z,99.99
2017-03-05T04:27:16.286Z,99.99
2017-03-05T04:37:16.371Z,99.99
2017-03-05T04:47:16.269Z,99.99
2017-03-05T04:57:16.282Z,99.99
2017-03-05T05:07:16.366Z,99.99
2017-03-05T05:17:16.297Z,99.99
2017-03-05T05:27:16.372Z,99.99
2017-03-05T05:37:16.257Z,99.99
2017-03-05T05:47:16.260Z,99.99
2017-03-05T05:57:16.249Z,99.99
2017-03-05T06:07:16.316Z,99.99
2017-03-05T06:17:16.279Z,99.99
2017-03-05T06:27:16.254Z,99.99
2017-03-05T06:37:16.255Z,99.99
2017-03-05T06:47:16.326Z,99.99
2017-03-05T06:57:16.272Z,99.99
2017-03-05T07:07:16.366Z,99.99
2017-03-05T07:17:16.343Z,99.99
2017-03-05T07:27:16.247Z,99.99
2017-03-05T07:37:16.331Z,99.99
2017-03-05T07:47:16.320Z,99.99
2017-03-05T07:57:16.281Z,99.99
2017-03-05T08:07:16.318Z,99.99
2017-03-05T08:17:16.237Z,99.99
2017-03-05T08:27:16.358Z,99.99
2017-03-05T08:37:16.261Z,99.99
2017-03-05T08:47:16.251Z,99.99
2017-03-05T08:57:16.328Z,99.99
2017-03-05T09:07:16.235Z,99.99
2017-03-05T09:17:16.246Z,99.99
2017-03-05T09:27:16.297Z,99.99
2017-03-05T09:37:16.223Z,99.99
2017-03-05T09:47:16.240Z,96.89
2017-03-05T09:57:16.292Z,93.36
2017-03-05T10:07:16.793Z,91.74
2017-03-05T10:17:16.309Z,90.12
2017-03-05T10:27:16.242Z,87.78
2017-03-05T10:37:16.245Z,85.87
2017-03-05T10:47:16.984Z,85.93
2017-03-05T10:57:16.373Z,80.2
2017-03-05T11:07:16.310Z,80.87
2017-03-05T11:17:16.325Z,78.39
2017-03-05T11:27:16.410Z,76.48
2017-03-05T11:37:16.293Z,74.8
2017-03-05T11:47:16.350Z,70.89
2017-03-05T11:57:16.309Z,70.26
2017-03-05T12:07:16.304Z,68.82
2017-03-05T12:17:16.339Z,68.29
2017-03-05T12:27:16.309Z,68.67
2017-03-05T12:37:16.274Z,68.67
2017-03-05T12:47:16.232Z,63.6
2017-03-05T12:57:16.281Z,64.09
2017-03-05T13:07:16.363Z,65.9
2017-03-05T13:17:16.231Z,65.33
2017-03-05T13:27:16.274Z,65.23
2017-03-05T13:37:16.367Z,62.3
2017-03-05T13:47:16.252Z,63.51
2017-03-05T13:57:16.226Z,65.42
2017-03-05T14:07:16.241Z,67.91
2017-03-05T14:17:16.209Z,66.92
2017-03-05T14:27:16.292Z,66.72
2017-03-05T14:37:16.289Z,66.85
2017-03-05T14:47:16.386Z,63.96
2017-03-05T14:57:16.254Z,61.41
2017-03-05T15:07:16.254Z,62.55
2017-03-05T15:17:16.224Z,63.29
2017-03-05T15:27:16.245Z,65.26
2017-03-05T15:37:16.332Z,69.08
2017-03-05T15:47:16.227Z,72.23
2017-03-05T15:57:16.270Z,70.95
2017-03-05T16:07:16.260Z,72.57
2017-03-05T16:17:16.259Z,75.4
2017-03-05T16:27:16.258Z,79.88
2017-03-05T16:37:16.230Z,94.03
2017-03-05T16:47:16.251Z,99.99
2017-03-05T16:57:16.222Z,99.84
2017-03-05T17:07:16.237Z,99.99
2017-03-05T17:17:16.274Z,99.99
2017-03-05T17:27:16.212Z,99.99
2017-03-05T17:37:16.217Z,99.99
2017-03-05T17:47:16.633Z,99.99
2017-03-05T17:57:16.321Z,99.99
2017-03-05T18:07:16.328Z,99.99
2017-03-05T18:17:16.226Z,99.99
2017-03-05T18:27:16.287Z,99.99
2017-03-05T18:37:16.222Z,99.99
2017-03-05T18:47:16.213Z,99.99
2017-03-05T18:57:19.875Z,99.99
2017-03-05T19:07:16.218Z,99.99
2017-03-05T19:17:17.563Z,99.99
2017-03-05T19:27:16.195Z,99.99
2017-03-05T19:37:16.232Z,99.99
2017-03-05T19:47:16.261Z,99.99
2017-03-05T19:57:16.305Z,99.99
2017-03-05T20:07:16.294Z,99.99
2017-03-05T20:17:16.245Z,99.99
2017-03-05T20:27:16.215Z,99.99
2017-03-05T20:37:16.295Z,99.99
2017-03-05T20:47:16.289Z,99.99
2017-03-05T20:57:16.311Z,99.99
2017-03-05T21:07:16.225Z,99.99
2017-03-05T21:17:16.261Z,99.99
2017-03-05T21:27:16.282Z,99.99
2017-03-05T21:37:16.252Z,99.99
2017-03-05T21:47:16.245Z,99.99
2017-03-05T21:57:16.265Z,99.99
2017-03-05T22:07:16.188Z,99.99
2017-03-05T22:17:16.184Z,99.99
2017-03-05T22:27:16.272Z,99.99
2017-03-05T22:37:16.230Z,99.99
2017-03-05T22:47:16.316Z,99.99
2017-03-05T22:57:16.270Z,99.99
2017-03-05T23:07:16.221Z,99.99
2017-03-05T23:17:16.266Z,99.99
2017-03-05T23:27:16.409Z,99.99
2017-03-05T23:37:16.247Z,99.99
2017-03-05T23:47:16.221Z,99.99
2017-03-05T23:57:16.266Z,99.99
